KGSO/GSO METAR and TAF weather

Enter ICAO airport designator
Station Type Date Time Source
KGSO METAR 2022/12/08 12:54 UTC NOAA

KGSO 081254Z 05007KT 10SM FEW080 BKN250 12/11 A3022 RMK AO2 SLP233 T01170106


Station Type Date Time Source
KGSO Decoded METAR 2022/12/08 12:54 UTC NOAA

PIEDMONT TRIAD INTERNATIONAL AIRPORT , NC, United States (KGSO) 36-06N 079-57W 275M
Dec 08, 2022 - 07:54 AM EST / 2022.12.08 1254 UTC
Wind: from the NE (050 degrees) at 8 MPH (7 KT):0
Visibility: 10 mile(s):0
Sky conditions: mostly cloudy
Temperature: 53.1 F (11.7 C)
Dew Point: 51.1 F (10.6 C)
Relative Humidity: 92%
Pressure (altimeter): 30.22 in. Hg (1023 hPa)
ob: KGSO 081254Z 05007KT 10SM FEW080 BKN250 12/11 A3022 RMK AO2 SLP233 T01170106
cycle: 13

Station Type Date Time Source
KGSO TAF 2022/12/08 12:22 UTC NOAA

TAF KGSO 081120Z 0812/0912 04005KT 6SM BR SCT003 SCT007 BKN050
TEMPO 0812/0815 4SM BR BKN007
FM081500 06005KT P6SM OVC015
FM082100 06005KT 4SM -RA BR OVC007
FM090000 07006KT 3SM -RA BR OVC004
FM090600 06006KT 2SM -DZ BR BKN003

Example: see airport list